sensor_id;sensor_type;location;lat;lon;timestamp;pressure;altitude;pressure_sealevel;temperature;humidity
16793;BME280;8513;42.662;23.350;2023-04-01T00:01:03;94037.13;;;14.18;42.60
16793;BME280;8513;42.662;23.350;2023-04-01T00:03:29;94041.38;;;14.12;42.87
16793;BME280;8513;42.662;23.350;2023-04-01T00:05:56;94050.56;;;14.17;43.02
16793;BME280;8513;42.662;23.350;2023-04-01T00:08:22;94033.84;;;14.09;43.02
16793;BME280;8513;42.662;23.350;2023-04-01T00:10:48;94052.75;;;14.06;43.17
16793;BME280;8513;42.662;23.350;2023-04-01T00:13:13;94047.25;;;14.08;42.66
16793;BME280;8513;42.662;23.350;2023-04-01T00:15:39;94056.34;;;13.99;42.80
16793;BME280;8513;42.662;23.350;2023-04-01T00:18:05;94049.00;;;13.94;42.75
16793;BME280;8513;42.662;23.350;2023-04-01T00:20:31;94049.97;;;13.86;42.51
16793;BME280;8513;42.662;23.350;2023-04-01T00:22:57;94050.19;;;13.85;42.54
16793;BME280;8513;42.662;23.350;2023-04-01T00:25:23;94059.13;;;13.84;42.54
16793;BME280;8513;42.662;23.350;2023-04-01T00:27:48;94055.63;;;13.77;42.84
16793;BME280;8513;42.662;23.350;2023-04-01T00:30:14;94051.75;;;13.73;43.18
16793;BME280;8513;42.662;23.350;2023-04-01T00:32:40;94050.47;;;13.62;43.59
16793;BME280;8513;42.662;23.350;2023-04-01T00:35:06;94052.31;;;13.68;43.41
16793;BME280;8513;42.662;23.350;2023-04-01T00:37:35;94047.91;;;13.75;43.25
16793;BME280;8513;42.662;23.350;2023-04-01T00:40:00;94038.31;;;13.67;43.51
16793;BME280;8513;42.662;23.350;2023-04-01T00:42:26;94037.06;;;13.63;44.60
16793;BME280;8513;42.662;23.350;2023-04-01T00:44:52;94028.53;;;13.61;44.81
16793;BME280;8513;42.662;23.350;2023-04-01T00:47:18;94032.16;;;13.60;45.11
16793;BME280;8513;42.662;23.350;2023-04-01T00:49:46;94020.78;;;13.60;45.79
16793;BME280;8513;42.662;23.350;2023-04-01T00:52:15;94007.34;;;13.55;47.27
16793;BME280;8513;42.662;23.350;2023-04-01T00:54:45;94007.09;;;13.50;47.04
16793;BME280;8513;42.662;23.350;2023-04-01T00:57:25;94014.59;;;13.46;47.23
16793;BME280;8513;42.662;23.350;2023-04-01T00:59:53;94011.34;;;13.44;46.99
16793;BME280;8513;42.662;23.350;2023-04-01T01:02:20;94005.06;;;13.45;46.49
16793;BME280;8513;42.662;23.350;2023-04-01T01:04:46;94006.06;;;13.44;45.82
16793;BME280;8513;42.662;23.350;2023-04-01T01:12:28;94005.69;;;13.25;45.28
16793;BME280;8513;42.662;23.350;2023-04-01T01:15:18;93987.59;;;13.22;45.16
16793;BME280;8513;42.662;23.350;2023-04-01T01:23:28;93973.19;;;13.18;44.82
16793;BME280;8513;42.662;23.350;2023-04-01T01:37:16;93939.44;;;13.14;45.07
16793;BME280;8513;42.662;23.350;2023-04-01T01:39:45;93952.31;;;13.23;44.42
16793;BME280;8513;42.662;23.350;2023-04-01T01:42:14;93955.94;;;13.22;44.38
16793;BME280;8513;42.662;23.350;2023-04-01T01:44:42;93959.19;;;13.24;44.41
16793;BME280;8513;42.662;23.350;2023-04-01T01:47:10;93951.03;;;13.19;44.51
16793;BME280;8513;42.662;23.350;2023-04-01T01:49:36;93949.44;;;13.18;44.41
16793;BME280;8513;42.662;23.350;2023-04-01T01:52:04;93944.53;;;13.15;43.81
16793;BME280;8513;42.662;23.350;2023-04-01T01:54:29;93936.22;;;13.18;43.94
16793;BME280;8513;42.662;23.350;2023-04-01T01:57:03;93928.50;;;13.17;44.25
16793;BME280;8513;42.662;23.350;2023-04-01T01:59:33;93939.09;;;13.23;43.85
16793;BME280;8513;42.662;23.350;2023-04-01T02:02:01;93921.81;;;13.21;44.11
16793;BME280;8513;42.662;23.350;2023-04-01T02:04:37;93926.28;;;13.20;43.92
16793;BME280;8513;42.662;23.350;2023-04-01T02:07:07;93928.72;;;13.22;43.88
16793;BME280;8513;42.662;23.350;2023-04-01T02:09:34;93924.25;;;13.22;43.62
16793;BME280;8513;42.662;23.350;2023-04-01T02:12:06;93924.56;;;13.06;44.71
16793;BME280;8513;42.662;23.350;2023-04-01T02:14:46;93912.41;;;13.05;44.89
16793;BME280;8513;42.662;23.350;2023-04-01T02:17:26;93913.09;;;12.64;45.35
16793;BME280;8513;42.662;23.350;2023-04-01T02:19:58;93915.19;;;12.97;44.03
16793;BME280;8513;42.662;23.350;2023-04-01T02:22:28;93913.19;;;13.06;44.50
16793;BME280;8513;42.662;23.350;2023-04-01T02:24:58;93912.34;;;12.98;45.04
16793;BME280;8513;42.662;23.350;2023-04-01T02:27:24;93909.59;;;13.13;44.34
16793;BME280;8513;42.662;23.350;2023-04-01T02:29:51;93907.13;;;13.05;44.83
16793;BME280;8513;42.662;23.350;2023-04-01T02:32:19;93903.91;;;13.10;44.84
16793;BME280;8513;42.662;23.350;2023-04-01T02:34:46;93917.84;;;13.03;44.82
16793;BME280;8513;42.662;23.350;2023-04-01T02:37:12;93916.00;;;12.69;45.30
16793;BME280;8513;42.662;23.350;2023-04-01T02:39:38;93912.72;;;12.95;44.99
16793;BME280;8513;42.662;23.350;2023-04-01T02:42:03;93914.72;;;12.93;44.89
16793;BME280;8513;42.662;23.350;2023-04-01T02:44:29;93920.88;;;13.00;44.25
16793;BME280;8513;42.662;23.350;2023-04-01T02:46:55;93911.09;;;12.94;43.87
16793;BME280;8513;42.662;23.350;2023-04-01T02:49:20;93928.38;;;12.97;44.12
16793;BME280;8513;42.662;23.350;2023-04-01T02:51:46;93941.66;;;12.82;45.12
16793;BME280;8513;42.662;23.350;2023-04-01T02:54:12;93922.22;;;12.90;43.97
16793;BME280;8513;42.662;23.350;2023-04-01T02:56:37;93932.25;;;13.01;43.96
16793;BME280;8513;42.662;23.350;2023-04-01T02:59:03;93923.66;;;12.92;44.45
16793;BME280;8513;42.662;23.350;2023-04-01T03:01:28;93935.13;;;13.06;44.41
16793;BME280;8513;42.662;23.350;2023-04-01T03:03:53;93950.06;;;12.92;44.87
16793;BME280;8513;42.662;23.350;2023-04-01T03:06:19;93950.94;;;12.99;44.06
16793;BME280;8513;42.662;23.350;2023-04-01T03:08:45;93941.34;;;12.98;44.49
16793;BME280;8513;42.662;23.350;2023-04-01T03:11:11;93955.38;;;12.99;44.64
16793;BME280;8513;42.662;23.350;2023-04-01T03:13:36;93967.97;;;12.97;44.65
16793;BME280;8513;42.662;23.350;2023-04-01T03:16:02;93958.19;;;12.69;45.41
16793;BME280;8513;42.662;23.350;2023-04-01T03:18:28;93949.91;;;12.72;44.94
16793;BME280;8513;42.662;23.350;2023-04-01T03:20:53;93942.69;;;12.81;44.87
16793;BME280;8513;42.662;23.350;2023-04-01T03:23:19;93950.88;;;12.93;44.56
16793;BME280;8513;42.662;23.350;2023-04-01T03:25:46;93963.66;;;12.96;44.86
16793;BME280;8513;42.662;23.350;2023-04-01T03:28:12;93962.06;;;12.95;45.50
16793;BME280;8513;42.662;23.350;2023-04-01T03:30:38;93968.63;;;13.06;45.81
16793;BME280;8513;42.662;23.350;2023-04-01T03:33:04;93959.97;;;12.90;45.82
16793;BME280;8513;42.662;23.350;2023-04-01T03:35:29;93959.66;;;13.00;45.97
16793;BME280;8513;42.662;23.350;2023-04-01T03:37:55;93966.59;;;12.79;46.88
16793;BME280;8513;42.662;23.350;2023-04-01T03:40:21;93969.09;;;12.88;47.39
16793;BME280;8513;42.662;23.350;2023-04-01T03:42:47;93963.00;;;12.87;47.83
16793;BME280;8513;42.662;23.350;2023-04-01T03:45:12;93942.72;;;12.88;47.23
16793;BME280;8513;42.662;23.350;2023-04-01T03:47:38;93940.22;;;12.79;47.71
16793;BME280;8513;42.662;23.350;2023-04-01T03:50:05;93920.13;;;12.78;47.88
16793;BME280;8513;42.662;23.350;2023-04-01T03:52:31;93912.22;;;12.78;47.79
16793;BME280;8513;42.662;23.350;2023-04-01T03:54:56;93898.88;;;12.87;47.74
16793;BME280;8513;42.662;23.350;2023-04-01T03:57:22;93890.19;;;12.93;47.66
16793;BME280;8513;42.662;23.350;2023-04-01T03:59:48;93869.44;;;12.83;47.54
16793;BME280;8513;42.662;23.350;2023-04-01T04:02:13;93857.47;;;12.87;47.32
16793;BME280;8513;42.662;23.350;2023-04-01T04:04:39;93852.19;;;12.87;47.40
16793;BME280;8513;42.662;23.350;2023-04-01T04:07:05;93857.47;;;12.87;47.60
16793;BME280;8513;42.662;23.350;2023-04-01T04:09:31;93850.75;;;12.85;46.76
16793;BME280;8513;42.662;23.350;2023-04-01T04:11:57;93849.41;;;12.95;46.52
16793;BME280;8513;42.662;23.350;2023-04-01T04:14:23;93842.97;;;13.05;46.27
16793;BME280;8513;42.662;23.350;2023-04-01T04:16:48;93843.97;;;13.03;46.04
16793;BME280;8513;42.662;23.350;2023-04-01T04:19:14;93838.28;;;13.00;46.12
16793;BME280;8513;42.662;23.350;2023-04-01T04:21:40;93828.34;;;13.02;46.03
16793;BME280;8513;42.662;23.350;2023-04-01T04:24:06;93830.34;;;13.00;45.64
16793;BME280;8513;42.662;23.350;2023-04-01T04:26:32;93830.94;;;12.95;45.51
16793;BME280;8513;42.662;23.350;2023-04-01T04:28:57;93827.13;;;13.05;45.84
16793;BME280;8513;42.662;23.350;2023-04-01T04:31:24;93809.66;;;12.97;45.62
16793;BME280;8513;42.662;23.350;2023-04-01T04:33:50;93809.25;;;13.00;44.89
16793;BME280;8513;42.662;23.350;2023-04-01T04:36:17;93811.50;;;13.03;44.61
16793;BME280;8513;42.662;23.350;2023-04-01T04:38:42;93803.97;;;13.07;44.51
16793;BME280;8513;42.662;23.350;2023-04-01T04:41:16;93799.97;;;13.11;44.01
16793;BME280;8513;42.662;23.350;2023-04-01T04:43:54;93797.09;;;13.12;43.88
16793;BME280;8513;42.662;23.350;2023-04-01T04:46:21;93784.75;;;13.13;43.48
16793;BME280;8513;42.662;23.350;2023-04-01T04:48:47;93781.25;;;13.12;43.42
16793;BME280;8513;42.662;23.350;2023-04-01T04:51:17;93796.91;;;13.14;43.59
16793;BME280;8513;42.662;23.350;2023-04-01T04:53:44;93775.78;;;13.07;43.60
16793;BME280;8513;42.662;23.350;2023-04-01T04:56:09;93775.13;;;12.92;43.93
16793;BME280;8513;42.662;23.350;2023-04-01T04:58:36;93763.06;;;12.76;44.45
16793;BME280;8513;42.662;23.350;2023-04-01T05:01:09;93773.03;;;12.80;44.70
16793;BME280;8513;42.662;23.350;2023-04-01T05:03:36;93787.06;;;12.88;44.79
16793;BME280;8513;42.662;23.350;2023-04-01T05:06:02;93778.59;;;12.57;45.53
16793;BME280;8513;42.662;23.350;2023-04-01T05:08:27;93771.97;;;12.75;45.15
16793;BME280;8513;42.662;23.350;2023-04-01T05:10:53;93775.63;;;12.74;45.28
16793;BME280;8513;42.662;23.350;2023-04-01T05:13:18;93761.59;;;12.67;45.04
16793;BME280;8513;42.662;23.350;2023-04-01T05:15:43;93759.16;;;12.65;45.38
16793;BME280;8513;42.662;23.350;2023-04-01T05:18:09;93764.03;;;12.68;45.43
16793;BME280;8513;42.662;23.350;2023-04-01T05:20:34;93753.50;;;12.68;45.53
16793;BME280;8513;42.662;23.350;2023-04-01T05:23:00;93746.75;;;12.59;45.92
16793;BME280;8513;42.662;23.350;2023-04-01T05:25:26;93752.63;;;12.61;46.18
16793;BME280;8513;42.662;23.350;2023-04-01T05:27:51;93741.03;;;12.55;45.88
16793;BME280;8513;42.662;23.350;2023-04-01T05:30:17;93727.84;;;12.55;45.62
16793;BME280;8513;42.662;23.350;2023-04-01T05:32:42;93736.56;;;12.56;45.94
16793;BME280;8513;42.662;23.350;2023-04-01T05:35:09;93750.22;;;12.66;45.99
16793;BME280;8513;42.662;23.350;2023-04-01T05:37:35;93746.19;;;12.70;45.61
16793;BME280;8513;42.662;23.350;2023-04-01T05:40:01;93731.59;;;12.68;45.61
16793;BME280;8513;42.662;23.350;2023-04-01T05:42:26;93753.47;;;12.62;45.91
16793;BME280;8513;42.662;23.350;2023-04-01T05:44:52;93744.88;;;12.46;45.88
16793;BME280;8513;42.662;23.350;2023-04-01T05:47:17;93742.53;;;12.65;45.67
16793;BME280;8513;42.662;23.350;2023-04-01T05:49:43;93734.66;;;12.36;46.31
16793;BME280;8513;42.662;23.350;2023-04-01T05:52:08;93744.94;;;12.60;46.14
16793;BME280;8513;42.662;23.350;2023-04-01T05:54:34;93730.00;;;12.80;45.36
16793;BME280;8513;42.662;23.350;2023-04-01T05:56:59;93726.19;;;12.96;44.85
16793;BME280;8513;42.662;23.350;2023-04-01T05:59:25;93733.97;;;13.11;44.75
16793;BME280;8513;42.662;23.350;2023-04-01T06:01:50;93723.31;;;13.32;43.86
16793;BME280;8513;42.662;23.350;2023-04-01T06:04:17;93715.03;;;13.55;42.63
16793;BME280;8513;42.662;23.350;2023-04-01T06:06:43;93709.53;;;13.77;42.70
16793;BME280;8513;42.662;23.350;2023-04-01T06:09:19;93713.19;;;13.69;42.69
16793;BME280;8513;42.662;23.350;2023-04-01T06:14:42;93730.66;;;13.97;41.79
16793;BME280;8513;42.662;23.350;2023-04-01T06:36:49;93705.84;;;13.84;41.49
16793;BME280;8513;42.662;23.350;2023-04-01T06:53:41;93686.09;;;14.33;41.76
16793;BME280;8513;42.662;23.350;2023-04-01T06:56:12;93689.56;;;14.27;42.22
16793;BME280;8513;42.662;23.350;2023-04-01T06:58:50;93680.34;;;14.43;42.02
16793;BME280;8513;42.662;23.350;2023-04-01T07:01:26;93674.47;;;14.41;42.30
16793;BME280;8513;42.662;23.350;2023-04-01T07:03:53;93662.69;;;14.37;42.49
16793;BME280;8513;42.662;23.350;2023-04-01T07:09:15;93676.53;;;14.26;43.46
16793;BME280;8513;42.662;23.350;2023-04-01T07:11:43;93671.22;;;14.39;43.00
16793;BME280;8513;42.662;23.350;2023-04-01T07:14:32;93674.66;;;14.53;43.11
16793;BME280;8513;42.662;23.350;2023-04-01T07:24:45;93670.31;;;14.72;42.73
16793;BME280;8513;42.662;23.350;2023-04-01T07:27:13;93659.78;;;14.65;42.59
16793;BME280;8513;42.662;23.350;2023-04-01T07:29:39;93658.91;;;14.06;44.40
16793;BME280;8513;42.662;23.350;2023-04-01T07:37:17;93670.31;;;14.72;43.20
16793;BME280;8513;42.662;23.350;2023-04-01T07:50:28;93646.69;;;14.77;43.55
16793;BME280;8513;42.662;23.350;2023-04-01T07:58:08;93657.28;;;14.77;44.17
16793;BME280;8513;42.662;23.350;2023-04-01T08:00:51;93661.38;;;14.66;44.33
16793;BME280;8513;42.662;23.350;2023-04-01T08:06:59;93662.44;;;14.65;44.45
16793;BME280;8513;42.662;23.350;2023-04-01T08:12:27;93628.34;;;14.82;43.70
16793;BME280;8513;42.662;23.350;2023-04-01T08:15:09;93631.97;;;14.94;43.92
16793;BME280;8513;42.662;23.350;2023-04-01T08:23:23;93618.47;;;15.34;42.62
16793;BME280;8513;42.662;23.350;2023-04-01T08:26:06;93605.63;;;15.31;42.81
16793;BME280;8513;42.662;23.350;2023-04-01T08:33:36;93585.06;;;15.83;41.53
16793;BME280;8513;42.662;23.350;2023-04-01T08:44:21;93550.81;;;15.82;41.42
16793;BME280;8513;42.662;23.350;2023-04-01T08:56:10;93546.66;;;15.68;41.36
16793;BME280;8513;42.662;23.350;2023-04-01T08:58:57;93535.66;;;15.89;41.01
16793;BME280;8513;42.662;23.350;2023-04-01T09:01:51;93563.47;;;16.17;40.48
16793;BME280;8513;42.662;23.350;2023-04-01T09:07:32;93540.19;;;16.37;39.83
16793;BME280;8513;42.662;23.350;2023-04-01T09:36:55;93502.06;;;17.57;34.50
16793;BME280;8513;42.662;23.350;2023-04-01T09:44:42;93502.53;;;17.90;34.10
16793;BME280;8513;42.662;23.350;2023-04-01T10:46:20;93411.97;;;18.70;33.16
16793;BME280;8513;42.662;23.350;2023-04-01T10:51:08;93418.38;;;18.69;33.73
16793;BME280;8513;42.662;23.350;2023-04-01T10:54:36;93419.06;;;18.77;32.98
16793;BME280;8513;42.662;23.350;2023-04-01T11:29:36;93401.66;;;17.59;31.69
16793;BME280;8513;42.662;23.350;2023-04-01T11:38:02;93463.09;;;16.92;37.27
16793;BME280;8513;42.662;23.350;2023-04-01T11:43:51;93471.72;;;16.76;38.31
16793;BME280;8513;42.662;23.350;2023-04-01T11:46:56;93525.97;;;16.80;37.32
16793;BME280;8513;42.662;23.350;2023-04-01T11:55:11;93608.59;;;15.73;50.92
16793;BME280;8513;42.662;23.350;2023-04-01T12:04:13;93656.16;;;14.40;58.82
16793;BME280;8513;42.662;23.350;2023-04-01T12:12:36;93625.50;;;14.25;61.01
16793;BME280;8513;42.662;23.350;2023-04-01T12:15:34;93637.84;;;14.51;60.02
16793;BME280;8513;42.662;23.350;2023-04-01T12:32:09;93632.00;;;15.44;58.40
16793;BME280;8513;42.662;23.350;2023-04-01T12:40:20;93628.88;;;14.97;60.08
16793;BME280;8513;42.662;23.350;2023-04-01T12:42:57;93634.44;;;14.83;60.58
16793;BME280;8513;42.662;23.350;2023-04-01T12:53:56;93626.88;;;14.41;64.25
16793;BME280;8513;42.662;23.350;2023-04-01T13:02:03;93626.63;;;14.63;63.80
16793;BME280;8513;42.662;23.350;2023-04-01T13:10:39;93586.06;;;14.75;60.81
16793;BME280;8513;42.662;23.350;2023-04-01T13:16:16;93557.38;;;15.54;60.51
16793;BME280;8513;42.662;23.350;2023-04-01T13:18:52;93550.44;;;16.52;58.83
16793;BME280;8513;42.662;23.350;2023-04-01T13:24:40;93544.63;;;21.13;47.17
16793;BME280;8513;42.662;23.350;2023-04-01T13:27:20;93532.22;;;24.02;39.97
16793;BME280;8513;42.662;23.350;2023-04-01T13:35:46;93510.25;;;30.88;26.33
16793;BME280;8513;42.662;23.350;2023-04-01T14:02:39;93481.66;;;34.85;17.03
16793;BME280;8513;42.662;23.350;2023-04-01T14:05:35;93480.44;;;34.13;16.80
16793;BME280;8513;42.662;23.350;2023-04-01T14:13:18;93473.13;;;33.71;17.44
16793;BME280;8513;42.662;23.350;2023-04-01T14:15:58;93460.16;;;30.54;19.99
16793;BME280;8513;42.662;23.350;2023-04-01T14:18:40;93447.00;;;29.99;21.59
16793;BME280;8513;42.662;23.350;2023-04-01T14:21:41;93450.16;;;27.59;25.82
16793;BME280;8513;42.662;23.350;2023-04-01T14:30:10;93442.66;;;24.47;31.41
16793;BME280;8513;42.662;23.350;2023-04-01T14:35:49;93434.31;;;22.97;33.46
16793;BME280;8513;42.662;23.350;2023-04-01T14:38:30;93435.09;;;23.79;32.08
16793;BME280;8513;42.662;23.350;2023-04-01T14:41:10;93434.16;;;26.30;28.79
16793;BME280;8513;42.662;23.350;2023-04-01T14:43:54;93428.84;;;29.77;23.81
16793;BME280;8513;42.662;23.350;2023-04-01T14:49:36;93438.53;;;34.91;17.74
16793;BME280;8513;42.662;23.350;2023-04-01T14:54:49;93427.59;;;36.76;15.58
16793;BME280;8513;42.662;23.350;2023-04-01T14:57:30;93430.72;;;37.64;14.33
16793;BME280;8513;42.662;23.350;2023-04-01T15:02:57;93429.25;;;38.32;13.56
16793;BME280;8513;42.662;23.350;2023-04-01T15:08:22;93444.91;;;38.51;13.73
16793;BME280;8513;42.662;23.350;2023-04-01T15:16:27;93455.56;;;37.17;14.64
16793;BME280;8513;42.662;23.350;2023-04-01T15:24:47;93448.25;;;27.92;24.35
16793;BME280;8513;42.662;23.350;2023-04-01T15:32:56;93447.69;;;22.92;32.59
16793;BME280;8513;42.662;23.350;2023-04-01T15:38:36;93445.91;;;21.34;36.98
16793;BME280;8513;42.662;23.350;2023-04-01T15:41:15;93454.25;;;21.10;37.51
16793;BME280;8513;42.662;23.350;2023-04-01T15:43:48;93455.44;;;20.16;39.25
16793;BME280;8513;42.662;23.350;2023-04-01T15:46:34;93459.81;;;19.28;40.77
16793;BME280;8513;42.662;23.350;2023-04-01T15:51:57;93611.19;;;18.73;41.68
16793;BME280;8513;42.662;23.350;2023-04-01T16:13:46;93714.97;;;14.22;53.23
16793;BME280;8513;42.662;23.350;2023-04-01T16:24:20;93734.13;;;13.77;53.84
16793;BME280;8513;42.662;23.350;2023-04-01T16:26:56;93738.34;;;13.38;55.73
16793;BME280;8513;42.662;23.350;2023-04-01T16:32:34;93732.63;;;13.28;54.16
16793;BME280;8513;42.662;23.350;2023-04-01T16:37:47;93764.22;;;13.08;55.63
16793;BME280;8513;42.662;23.350;2023-04-01T16:43:12;93762.38;;;12.61;55.78
16793;BME280;8513;42.662;23.350;2023-04-01T16:45:53;93774.13;;;12.99;54.69
16793;BME280;8513;42.662;23.350;2023-04-01T16:48:48;93766.50;;;12.76;54.86
16793;BME280;8513;42.662;23.350;2023-04-01T16:51:17;93754.78;;;12.44;55.51
16793;BME280;8513;42.662;23.350;2023-04-01T16:56:54;93755.31;;;12.68;54.38
16793;BME280;8513;42.662;23.350;2023-04-01T16:59:26;93765.66;;;12.69;54.50
16793;BME280;8513;42.662;23.350;2023-04-01T17:04:44;93750.16;;;12.53;54.79
16793;BME280;8513;42.662;23.350;2023-04-01T17:15:31;93762.97;;;11.78;56.05
16793;BME280;8513;42.662;23.350;2023-04-01T17:18:09;93757.13;;;11.55;56.62
16793;BME280;8513;42.662;23.350;2023-04-01T17:23:36;93781.69;;;11.62;55.00
16793;BME280;8513;42.662;23.350;2023-04-01T17:31:53;93773.84;;;11.25;56.63
16793;BME280;8513;42.662;23.350;2023-04-01T17:46:31;93780.84;;;11.03;56.14
16793;BME280;8513;42.662;23.350;2023-04-01T17:52:11;93803.75;;;10.88;56.22
16793;BME280;8513;42.662;23.350;2023-04-01T17:54:46;93816.44;;;10.99;56.32
16793;BME280;8513;42.662;23.350;2023-04-01T18:00:03;93827.66;;;11.23;54.93
16793;BME280;8513;42.662;23.350;2023-04-01T18:02:48;93831.72;;;11.25;55.24
16793;BME280;8513;42.662;23.350;2023-04-01T18:05:52;93847.94;;;11.29;55.56
16793;BME280;8513;42.662;23.350;2023-04-01T18:16:29;93869.59;;;11.10;56.54
16793;BME280;8513;42.662;23.350;2023-04-01T18:22:21;93889.22;;;11.43;55.67
16793;BME280;8513;42.662;23.350;2023-04-01T18:27:23;93880.59;;;11.50;55.10
16793;BME280;8513;42.662;23.350;2023-04-01T18:32:44;93871.75;;;11.57;54.22
16793;BME280;8513;42.662;23.350;2023-04-01T18:35:49;93874.97;;;11.38;54.60
16793;BME280;8513;42.662;23.350;2023-04-01T18:38:25;93873.28;;;11.00;55.52
16793;BME280;8513;42.662;23.350;2023-04-01T18:52:28;93884.34;;;11.11;55.16
16793;BME280;8513;42.662;23.350;2023-04-01T18:57:27;93886.50;;;11.22;53.64
16793;BME280;8513;42.662;23.350;2023-04-01T19:00:13;93895.31;;;11.29;53.67
16793;BME280;8513;42.662;23.350;2023-04-01T19:02:50;93892.41;;;11.09;53.65
16793;BME280;8513;42.662;23.350;2023-04-01T19:05:18;93898.78;;;11.15;53.87
16793;BME280;8513;42.662;23.350;2023-04-01T19:07:55;93902.78;;;11.11;53.86
16793;BME280;8513;42.662;23.350;2023-04-01T19:10:41;93912.94;;;10.99;55.03
16793;BME280;8513;42.662;23.350;2023-04-01T19:13:15;93913.38;;;11.02;55.03
16793;BME280;8513;42.662;23.350;2023-04-01T19:21:35;93924.44;;;10.98;54.12
16793;BME280;8513;42.662;23.350;2023-04-01T19:26:45;93937.97;;;11.24;52.75
16793;BME280;8513;42.662;23.350;2023-04-01T19:49:02;93966.69;;;10.81;52.34
16793;BME280;8513;42.662;23.350;2023-04-01T19:54:25;93963.28;;;10.58;53.22
16793;BME280;8513;42.662;23.350;2023-04-01T19:59:44;93972.88;;;10.51;53.78
16793;BME280;8513;42.662;23.350;2023-04-01T20:04:48;93981.22;;;10.54;52.39
16793;BME280;8513;42.662;23.350;2023-04-01T20:07:41;93968.44;;;10.51;52.72
16793;BME280;8513;42.662;23.350;2023-04-01T20:10:14;93952.44;;;10.38;52.89
16793;BME280;8513;42.662;23.350;2023-04-01T20:12:56;93951.56;;;10.46;52.68
16793;BME280;8513;42.662;23.350;2023-04-01T20:15:45;93960.56;;;10.51;51.24
16793;BME280;8513;42.662;23.350;2023-04-01T20:18:18;93963.63;;;10.55;51.46
16793;BME280;8513;42.662;23.350;2023-04-01T20:20:59;93965.22;;;10.64;51.16
16793;BME280;8513;42.662;23.350;2023-04-01T20:23:35;93965.38;;;10.63;50.65
16793;BME280;8513;42.662;23.350;2023-04-01T20:26:08;93972.84;;;10.74;50.20
16793;BME280;8513;42.662;23.350;2023-04-01T20:37:32;93982.66;;;10.80;49.68
16793;BME280;8513;42.662;23.350;2023-04-01T20:40:20;93979.13;;;10.88;49.79
16793;BME280;8513;42.662;23.350;2023-04-01T20:51:03;93980.06;;;10.72;50.52
16793;BME280;8513;42.662;23.350;2023-04-01T20:53:36;93980.03;;;10.80;50.52
16793;BME280;8513;42.662;23.350;2023-04-01T21:01:28;93982.91;;;10.47;51.46
16793;BME280;8513;42.662;23.350;2023-04-01T21:12:13;93991.50;;;10.64;50.37
16793;BME280;8513;42.662;23.350;2023-04-01T21:20:09;94001.47;;;10.69;49.85
16793;BME280;8513;42.662;23.350;2023-04-01T21:23:01;93992.09;;;10.89;48.57
16793;BME280;8513;42.662;23.350;2023-04-01T21:28:17;93999.69;;;10.69;49.21
16793;BME280;8513;42.662;23.350;2023-04-01T21:31:21;93985.00;;;10.75;48.82
16793;BME280;8513;42.662;23.350;2023-04-01T21:44:43;93995.34;;;10.76;48.14
16793;BME280;8513;42.662;23.350;2023-04-01T21:52:55;94000.94;;;10.73;48.72
16793;BME280;8513;42.662;23.350;2023-04-01T22:07:21;93999.16;;;10.51;49.46
16793;BME280;8513;42.662;23.350;2023-04-01T22:10:03;93997.00;;;10.54;49.61
16793;BME280;8513;42.662;23.350;2023-04-01T22:20:33;93989.25;;;10.38;49.92
16793;BME280;8513;42.662;23.350;2023-04-01T22:23:24;93995.53;;;10.52;50.05
16793;BME280;8513;42.662;23.350;2023-04-01T22:26:22;93985.25;;;10.42;50.05
16793;BME280;8513;42.662;23.350;2023-04-01T22:31:34;93989.34;;;10.45;49.38
16793;BME280;8513;42.662;23.350;2023-04-01T22:36:53;93982.38;;;10.29;49.24
16793;BME280;8513;42.662;23.350;2023-04-01T22:56:06;94014.88;;;10.36;48.16
16793;BME280;8513;42.662;23.350;2023-04-01T22:58:35;94013.06;;;10.36;47.54
16793;BME280;8513;42.662;23.350;2023-04-01T23:01:16;94024.38;;;10.37;47.56
16793;BME280;8513;42.662;23.350;2023-04-01T23:03:47;94020.41;;;10.41;47.53
16793;BME280;8513;42.662;23.350;2023-04-01T23:06:29;94030.81;;;10.57;46.55
16793;BME280;8513;42.662;23.350;2023-04-01T23:09:08;94020.06;;;10.13;47.57
16793;BME280;8513;42.662;23.350;2023-04-01T23:11:46;94010.84;;;10.17;47.50
16793;BME280;8513;42.662;23.350;2023-04-01T23:16:57;94007.41;;;10.16;47.54
16793;BME280;8513;42.662;23.350;2023-04-01T23:19:32;94011.78;;;10.01;47.67
16793;BME280;8513;42.662;23.350;2023-04-01T23:22:30;94010.56;;;10.12;47.08
16793;BME280;8513;42.662;23.350;2023-04-01T23:25:12;94022.22;;;10.09;47.20
16793;BME280;8513;42.662;23.350;2023-04-01T23:27:51;94012.16;;;10.21;46.95
16793;BME280;8513;42.662;23.350;2023-04-01T23:36:13;94034.34;;;10.19;46.35
16793;BME280;8513;42.662;23.350;2023-04-01T23:38:41;94027.06;;;10.29;46.50
16793;BME280;8513;42.662;23.350;2023-04-01T23:41:20;94031.72;;;10.19;46.85
16793;BME280;8513;42.662;23.350;2023-04-01T23:44:00;94030.41;;;10.14;47.05
16793;BME280;8513;42.662;23.350;2023-04-01T23:46:27;94029.19;;;10.25;46.63
16793;BME280;8513;42.662;23.350;2023-04-01T23:48:54;94020.31;;;10.26;46.75
16793;BME280;8513;42.662;23.350;2023-04-01T23:51:26;94034.28;;;10.27;46.45
16793;BME280;8513;42.662;23.350;2023-04-01T23:54:19;94035.66;;;10.14;46.70
16793;BME280;8513;42.662;23.350;2023-04-01T23:56:53;94030.06;;;10.18;46.35
16793;BME280;8513;42.662;23.350;2023-04-01T23:59:29;94030.56;;;10.13;46.43
